Time;durP1;ratioP1;P1;durP2;ratioP2;P2;SDS_P1;SDS_P2;PMS_P1;PMS_P2;Temp;Humidity;BMP_temperature;BMP_pressure;BME280_temperature;BME280_humidity;BME280_pressure;Samples;Min_cycle;Max_cycle;Signal;HPM_P1;HPM_P2
2022/04/20 19:55:37;;;;;;;;;;;;;;;;;;8472032;27;27934;-75
2022/04/20 19:59:37;;;;;;;;;;;;;;;;;;8428909;27;28083;-74
2022/04/20 20:03:37;;;;;;;;;;;;;;;;;;8438226;27;27389;-75
2022/04/20 20:09:26;;;;;;;;;;;;;;;;;;8382242;27;27841;-76
2022/04/20 20:13:28;;;;;;;;;;;;;;;;;;8434248;27;37106;-76
2022/04/20 20:17:28;;;;;;;;;;;;;;;;;;8433174;27;29370;-75
2022/04/20 20:21:28;;;;;;;;;;;;;;;;;;8428005;27;27780;-73
2022/04/20 20:30:06;;;;;;;;;;;;;;;;;;8412853;27;27382;-73
2022/04/20 20:34:06;;;;;;;;;;;;;;;;;;8413245;27;27112;-73
2022/04/20 20:38:06;;;;;;;;;;;;;;;;;;8424510;27;29150;-73
2022/04/20 20:42:06;;;;;;;;;;;;;;;;;;8414150;27;28176;-73
2022/04/20 20:46:08;;;;;;;;;;;;;;;;;;8450840;22;27146;-73
2022/04/20 20:54:27;;;;;;;;;;;;;;;;;;8381843;28;27238;-73
2022/04/20 20:58:27;;;;;;;;;;;;;;;;;;8379940;28;27542;-73
2022/04/20 21:02:27;;;;;;;;;;;;;;;;;;8378445;28;27476;-73
2022/04/20 21:06:27;;;;;;;;;;;;;;;;;;8363548;28;28799;-73
2022/04/20 21:10:27;;;;;;;;;;;;;;;;;;8355376;28;28678;-73
2022/04/20 21:14:27;;;;;;;;;;;;;;;;;;8378480;28;29181;-73
2022/04/20 21:18:28;;;;;;;;;;;;;;;;;;8377846;28;27663;-73
2022/04/20 21:22:28;;;;;;;;;;;;;;;;;;8351493;28;28262;-73
2022/04/20 21:26:28;;;;;;;;;;;;;;;;;;8362093;28;27741;-73
2022/04/20 21:30:28;;;;;;;;;;;;;;;;;;8361634;28;27978;-73
2022/04/20 21:34:28;;;;;;;;;;;;;;;;;;8358653;28;28443;-73
2022/04/20 21:38:28;;;;;;;;;;;;;;;;;;8336794;28;28747;-73
2022/04/20 21:42:29;;;;;;;;;;;;;;;;;;8340103;28;29685;-73
2022/04/20 21:46:29;;;;;;;;;;;;;;;;;;8360084;28;27611;-73
2022/04/20 21:50:30;;;;;;;;;;;;;;;;;;8366007;28;27181;-72
2022/04/20 21:54:30;;;;;;;;;;;;;;;;;;8360368;28;27351;-73
2022/04/20 21:58:30;;;;;;;;;;;;;;;;;;8356050;28;27367;-73
2022/04/20 22:15:27;;;;;;;;;;;;;;;;;;8362551;28;27224;-73
2022/04/20 22:19:28;;;;;;;;;;;;;;;;;;8359472;28;27465;-73
2022/04/20 22:23:28;;;;;;;;;;;;;;;;;;8336988;28;29091;-73
2022/04/20 22:27:28;;;;;;;;;;;;;;;;;;8355896;28;28208;-73
2022/04/20 22:31:28;;;;;;;;;;;;;;;;;;8360576;28;27837;-73
2022/04/20 22:35:28;;;;;;;;;;;;;;;;;;8360324;28;28430;-73
2022/04/20 22:39:28;;;;;;;;;;;;;;;;;;8338712;28;28182;-73
2022/04/20 22:43:29;;;;;;;;;;;;;;;;;;8360683;28;27278;-73
2022/04/20 22:47:30;;;;;;;;;;;;;;;;;;8354277;28;29418;-73
2022/04/20 22:51:30;;;;;;;;;;;;;;;;;;8359422;28;27612;-73
2022/04/20 22:55:30;;;;;;;;;;;;;;;;;;8358883;28;28142;-73
2022/04/20 22:59:31;;;;;;;;;;;;;;;;;;8359145;28;27461;-72
2022/04/20 23:03:31;;;;;;;;;;;;;;;;;;8361266;28;27374;-73
2022/04/20 23:07:31;;;;;;;;;;;;;;;;;;8360804;28;27514;-72
2022/04/20 23:11:31;;;;;;;;;;;;;;;;;;8362053;28;27393;-72
2022/04/20 23:15:31;;;;;;;;;;;;;;;;;;8358359;28;27334;-73
2022/04/20 23:19:31;;;;;;;;;;;;;;;;;;8332360;28;28363;-72
2022/04/20 23:23:31;;;;;;;;;;;;;;;;;;8339242;28;28689;-72
2022/04/20 23:31:50;;;;;;;;;;;;;;;;;;8361814;28;27120;-72
2022/04/20 23:35:50;;;;;;;;;;;;;;;;;;8340930;28;29626;-72
2022/04/20 23:39:51;;;;;;;;;;;;;;;;;;8362070;28;27120;-72
2022/04/20 23:43:51;;;;;;;;;;;;;;;;;;8362646;28;27323;-73
2022/04/20 23:47:51;;;;;;;;;;;;;;;;;;8358699;28;27211;-72
2022/04/20 23:51:51;;;;;;;;;;;;;;;;;;8360610;28;28833;-72
2022/04/20 23:55:54;;;;;;;;;;;;;;;;;;8351774;28;29396;-72
2022/04/20 23:59:54;;;;;;;;;;;;;;;;;;8362704;28;27442;-72
